sensor_id;sensor_type;location;lat;lon;timestamp;P1;durP1;ratioP1;P2;durP2;ratioP2
40951;SDS011;26682;51.660;19.338;2023-07-20T00:02:21;4.25;;;2.20;;
40951;SDS011;26682;51.660;19.338;2023-07-20T00:05:04;6.10;;;2.15;;
40951;SDS011;26682;51.660;19.338;2023-07-20T00:07:47;3.72;;;1.65;;
40951;SDS011;26682;51.660;19.338;2023-07-20T00:10:29;4.13;;;1.98;;
40951;SDS011;26682;51.660;19.338;2023-07-20T00:13:12;4.45;;;2.00;;
40951;SDS011;26682;51.660;19.338;2023-07-20T00:15:54;4.03;;;2.08;;
40951;SDS011;26682;51.660;19.338;2023-07-20T00:18:36;6.57;;;1.92;;
40951;SDS011;26682;51.660;19.338;2023-07-20T00:21:19;4.50;;;2.08;;
40951;SDS011;26682;51.660;19.338;2023-07-20T00:24:01;3.45;;;2.00;;
40951;SDS011;26682;51.660;19.338;2023-07-20T00:26:44;2.50;;;1.67;;
40951;SDS011;26682;51.660;19.338;2023-07-20T00:29:27;4.15;;;1.88;;
40951;SDS011;26682;51.660;19.338;2023-07-20T00:32:09;4.47;;;2.20;;
40951;SDS011;26682;51.660;19.338;2023-07-20T00:34:52;3.47;;;2.20;;
40951;SDS011;26682;51.660;19.338;2023-07-20T00:37:34;6.55;;;2.47;;
40951;SDS011;26682;51.660;19.338;2023-07-20T00:40:17;2.97;;;2.03;;
40951;SDS011;26682;51.660;19.338;2023-07-20T00:42:59;2.28;;;1.80;;
40951;SDS011;26682;51.660;19.338;2023-07-20T00:45:42;5.35;;;1.92;;
40951;SDS011;26682;51.660;19.338;2023-07-20T00:48:25;5.60;;;2.08;;
40951;SDS011;26682;51.660;19.338;2023-07-20T00:51:08;2.70;;;1.60;;
40951;SDS011;26682;51.660;19.338;2023-07-20T00:53:51;4.00;;;1.70;;
40951;SDS011;26682;51.660;19.338;2023-07-20T00:56:33;3.10;;;2.00;;
40951;SDS011;26682;51.660;19.338;2023-07-20T00:59:15;2.80;;;1.98;;
40951;SDS011;26682;51.660;19.338;2023-07-20T01:01:58;3.47;;;1.45;;
40951;SDS011;26682;51.660;19.338;2023-07-20T01:04:40;3.80;;;1.80;;
40951;SDS011;26682;51.660;19.338;2023-07-20T01:07:34;3.70;;;1.90;;
40951;SDS011;26682;51.660;19.338;2023-07-20T01:10:23;2.67;;;1.80;;
40951;SDS011;26682;51.660;19.338;2023-07-20T01:13:13;6.18;;;2.13;;
40951;SDS011;26682;51.660;19.338;2023-07-20T01:15:57;9.32;;;2.15;;
40951;SDS011;26682;51.660;19.338;2023-07-20T01:21:26;3.00;;;1.95;;
40951;SDS011;26682;51.660;19.338;2023-07-20T01:30:18;3.17;;;2.03;;
40951;SDS011;26682;51.660;19.338;2023-07-20T01:33:15;3.25;;;1.83;;
40951;SDS011;26682;51.660;19.338;2023-07-20T01:36:00;3.90;;;1.88;;
40951;SDS011;26682;51.660;19.338;2023-07-20T01:38:42;4.72;;;1.63;;
40951;SDS011;26682;51.660;19.338;2023-07-20T01:41:25;3.22;;;2.00;;
40951;SDS011;26682;51.660;19.338;2023-07-20T01:44:08;3.17;;;1.80;;
40951;SDS011;26682;51.660;19.338;2023-07-20T01:46:52;3.65;;;1.98;;
40951;SDS011;26682;51.660;19.338;2023-07-20T01:49:34;2.90;;;1.85;;
40951;SDS011;26682;51.660;19.338;2023-07-20T01:52:16;4.15;;;2.08;;
40951;SDS011;26682;51.660;19.338;2023-07-20T01:54:58;3.40;;;1.95;;
40951;SDS011;26682;51.660;19.338;2023-07-20T01:57:41;3.85;;;2.28;;
40951;SDS011;26682;51.660;19.338;2023-07-20T02:00:23;9.32;;;2.80;;
40951;SDS011;26682;51.660;19.338;2023-07-20T02:03:07;6.20;;;2.53;;
40951;SDS011;26682;51.660;19.338;2023-07-20T02:05:49;10.38;;;2.53;;
40951;SDS011;26682;51.660;19.338;2023-07-20T02:08:32;2.78;;;2.40;;
40951;SDS011;26682;51.660;19.338;2023-07-20T02:11:14;5.53;;;2.90;;
40951;SDS011;26682;51.660;19.338;2023-07-20T02:13:56;6.78;;;2.88;;
40951;SDS011;26682;51.660;19.338;2023-07-20T02:16:39;5.20;;;2.88;;
40951;SDS011;26682;51.660;19.338;2023-07-20T02:19:21;6.00;;;3.08;;
40951;SDS011;26682;51.660;19.338;2023-07-20T02:22:04;8.20;;;3.30;;
40951;SDS011;26682;51.660;19.338;2023-07-20T02:24:47;8.40;;;3.60;;
40951;SDS011;26682;51.660;19.338;2023-07-20T02:27:30;5.00;;;2.90;;
40951;SDS011;26682;51.660;19.338;2023-07-20T02:30:13;5.20;;;3.45;;
40951;SDS011;26682;51.660;19.338;2023-07-20T02:32:55;5.85;;;3.53;;
40951;SDS011;26682;51.660;19.338;2023-07-20T02:35:40;5.60;;;3.25;;
40951;SDS011;26682;51.660;19.338;2023-07-20T02:38:22;8.25;;;3.45;;
40951;SDS011;26682;51.660;19.338;2023-07-20T02:41:05;7.45;;;3.60;;
40951;SDS011;26682;51.660;19.338;2023-07-20T02:43:47;6.95;;;3.92;;
40951;SDS011;26682;51.660;19.338;2023-07-20T02:46:31;10.13;;;5.03;;
40951;SDS011;26682;51.660;19.338;2023-07-20T02:49:14;5.22;;;3.70;;
40951;SDS011;26682;51.660;19.338;2023-07-20T02:51:57;8.65;;;4.00;;
40951;SDS011;26682;51.660;19.338;2023-07-20T02:54:40;8.23;;;4.43;;
40951;SDS011;26682;51.660;19.338;2023-07-20T02:57:22;8.85;;;4.20;;
40951;SDS011;26682;51.660;19.338;2023-07-20T03:00:05;9.57;;;4.53;;
40951;SDS011;26682;51.660;19.338;2023-07-20T03:02:48;12.77;;;8.40;;
40951;SDS011;26682;51.660;19.338;2023-07-20T03:05:33;7.22;;;4.47;;
40951;SDS011;26682;51.660;19.338;2023-07-20T03:08:16;8.13;;;4.70;;
40951;SDS011;26682;51.660;19.338;2023-07-20T03:10:58;7.25;;;4.82;;
40951;SDS011;26682;51.660;19.338;2023-07-20T03:13:44;7.80;;;4.80;;
40951;SDS011;26682;51.660;19.338;2023-07-20T03:16:27;4.97;;;4.32;;
40951;SDS011;26682;51.660;19.338;2023-07-20T03:19:09;6.53;;;4.40;;
40951;SDS011;26682;51.660;19.338;2023-07-20T03:21:52;6.30;;;4.28;;
40951;SDS011;26682;51.660;19.338;2023-07-20T03:24:34;9.15;;;4.82;;
40951;SDS011;26682;51.660;19.338;2023-07-20T03:27:17;8.98;;;5.13;;
40951;SDS011;26682;51.660;19.338;2023-07-20T03:29:59;7.47;;;5.25;;
40951;SDS011;26682;51.660;19.338;2023-07-20T03:32:43;10.43;;;5.60;;
40951;SDS011;26682;51.660;19.338;2023-07-20T03:35:26;9.63;;;5.45;;
40951;SDS011;26682;51.660;19.338;2023-07-20T03:38:08;7.70;;;5.60;;
40951;SDS011;26682;51.660;19.338;2023-07-20T03:40:51;9.10;;;5.88;;
40951;SDS011;26682;51.660;19.338;2023-07-20T03:43:34;8.38;;;5.35;;
40951;SDS011;26682;51.660;19.338;2023-07-20T03:46:17;8.10;;;5.50;;
40951;SDS011;26682;51.660;19.338;2023-07-20T03:48:59;11.27;;;5.43;;
40951;SDS011;26682;51.660;19.338;2023-07-20T03:51:42;8.88;;;5.40;;
40951;SDS011;26682;51.660;19.338;2023-07-20T03:54:24;9.65;;;5.72;;
40951;SDS011;26682;51.660;19.338;2023-07-20T03:57:07;8.75;;;5.32;;
40951;SDS011;26682;51.660;19.338;2023-07-20T03:59:49;8.82;;;5.90;;
40951;SDS011;26682;51.660;19.338;2023-07-20T04:02:32;11.23;;;7.53;;
40951;SDS011;26682;51.660;19.338;2023-07-20T04:05:14;10.50;;;7.72;;
40951;SDS011;26682;51.660;19.338;2023-07-20T04:07:57;9.32;;;8.32;;
40951;SDS011;26682;51.660;19.338;2023-07-20T04:10:43;10.40;;;8.23;;
40951;SDS011;26682;51.660;19.338;2023-07-20T04:13:26;11.18;;;8.13;;
40951;SDS011;26682;51.660;19.338;2023-07-20T04:16:09;10.95;;;7.90;;
40951;SDS011;26682;51.660;19.338;2023-07-20T04:18:52;11.15;;;7.35;;
40951;SDS011;26682;51.660;19.338;2023-07-20T04:21:39;11.35;;;7.18;;
40951;SDS011;26682;51.660;19.338;2023-07-20T04:24:25;7.97;;;6.88;;
40951;SDS011;26682;51.660;19.338;2023-07-20T04:27:07;10.73;;;6.35;;
40951;SDS011;26682;51.660;19.338;2023-07-20T04:29:49;7.03;;;6.18;;
40951;SDS011;26682;51.660;19.338;2023-07-20T04:32:32;10.85;;;6.22;;
40951;SDS011;26682;51.660;19.338;2023-07-20T04:38:28;9.65;;;5.55;;
40951;SDS011;26682;51.660;19.338;2023-07-20T04:41:22;8.25;;;5.38;;
40951;SDS011;26682;51.660;19.338;2023-07-20T04:44:06;7.55;;;5.93;;
40951;SDS011;26682;51.660;19.338;2023-07-20T04:46:49;8.10;;;5.63;;
40951;SDS011;26682;51.660;19.338;2023-07-20T04:49:31;6.18;;;5.03;;
40951;SDS011;26682;51.660;19.338;2023-07-20T04:52:14;6.78;;;5.25;;
40951;SDS011;26682;51.660;19.338;2023-07-20T04:54:56;7.13;;;5.10;;
40951;SDS011;26682;51.660;19.338;2023-07-20T04:57:45;5.60;;;4.90;;
40951;SDS011;26682;51.660;19.338;2023-07-20T05:00:31;7.05;;;5.25;;
40951;SDS011;26682;51.660;19.338;2023-07-20T05:03:15;7.72;;;6.00;;
40951;SDS011;26682;51.660;19.338;2023-07-20T05:05:57;8.93;;;5.90;;
40951;SDS011;26682;51.660;19.338;2023-07-20T05:08:40;7.97;;;5.85;;
40951;SDS011;26682;51.660;19.338;2023-07-20T05:11:23;8.88;;;5.40;;
40951;SDS011;26682;51.660;19.338;2023-07-20T05:14:05;5.43;;;4.32;;
40951;SDS011;26682;51.660;19.338;2023-07-20T05:16:50;7.05;;;4.85;;
40951;SDS011;26682;51.660;19.338;2023-07-20T05:19:33;7.20;;;4.38;;
40951;SDS011;26682;51.660;19.338;2023-07-20T05:22:15;6.40;;;4.30;;
40951;SDS011;26682;51.660;19.338;2023-07-20T05:24:58;7.55;;;4.50;;
40951;SDS011;26682;51.660;19.338;2023-07-20T05:27:41;11.15;;;4.03;;
40951;SDS011;26682;51.660;19.338;2023-07-20T05:30:23;5.65;;;4.70;;
40951;SDS011;26682;51.660;19.338;2023-07-20T05:33:07;6.07;;;3.65;;
40951;SDS011;26682;51.660;19.338;2023-07-20T05:35:49;8.50;;;4.22;;
40951;SDS011;26682;51.660;19.338;2023-07-20T05:38:32;10.02;;;5.32;;
40951;SDS011;26682;51.660;19.338;2023-07-20T05:41:14;8.00;;;4.30;;
40951;SDS011;26682;51.660;19.338;2023-07-20T05:43:57;10.15;;;5.03;;
40951;SDS011;26682;51.660;19.338;2023-07-20T05:46:39;7.03;;;5.40;;
40951;SDS011;26682;51.660;19.338;2023-07-20T05:49:38;12.07;;;8.60;;
40951;SDS011;26682;51.660;19.338;2023-07-20T05:52:20;13.68;;;11.98;;
40951;SDS011;26682;51.660;19.338;2023-07-20T05:55:03;9.15;;;6.93;;
40951;SDS011;26682;51.660;19.338;2023-07-20T05:57:46;7.90;;;5.30;;
40951;SDS011;26682;51.660;19.338;2023-07-20T06:00:29;7.65;;;5.80;;
40951;SDS011;26682;51.660;19.338;2023-07-20T06:03:12;7.00;;;5.35;;
40951;SDS011;26682;51.660;19.338;2023-07-20T06:06:00;7.75;;;6.18;;
40951;SDS011;26682;51.660;19.338;2023-07-20T06:08:44;9.60;;;5.15;;
40951;SDS011;26682;51.660;19.338;2023-07-20T06:11:26;8.23;;;5.53;;
40951;SDS011;26682;51.660;19.338;2023-07-20T06:14:09;7.07;;;4.93;;
40951;SDS011;26682;51.660;19.338;2023-07-20T06:16:51;6.82;;;5.30;;
40951;SDS011;26682;51.660;19.338;2023-07-20T06:19:53;6.43;;;5.03;;
40951;SDS011;26682;51.660;19.338;2023-07-20T06:22:40;13.55;;;6.13;;
40951;SDS011;26682;51.660;19.338;2023-07-20T06:25:27;8.20;;;5.75;;
40951;SDS011;26682;51.660;19.338;2023-07-20T06:28:10;9.25;;;6.20;;
40951;SDS011;26682;51.660;19.338;2023-07-20T06:30:58;7.30;;;6.40;;
40951;SDS011;26682;51.660;19.338;2023-07-20T06:33:45;9.48;;;7.55;;
40951;SDS011;26682;51.660;19.338;2023-07-20T06:36:28;11.73;;;10.27;;
40951;SDS011;26682;51.660;19.338;2023-07-20T06:39:11;18.50;;;8.57;;
40951;SDS011;26682;51.660;19.338;2023-07-20T06:41:56;13.10;;;9.25;;
40951;SDS011;26682;51.660;19.338;2023-07-20T06:44:42;12.75;;;7.82;;
40951;SDS011;26682;51.660;19.338;2023-07-20T06:47:24;10.35;;;7.80;;
40951;SDS011;26682;51.660;19.338;2023-07-20T06:50:07;12.88;;;8.43;;
40951;SDS011;26682;51.660;19.338;2023-07-20T06:52:51;14.57;;;8.73;;
40951;SDS011;26682;51.660;19.338;2023-07-20T06:55:34;19.42;;;9.60;;
40951;SDS011;26682;51.660;19.338;2023-07-20T06:58:23;15.85;;;9.57;;
40951;SDS011;26682;51.660;19.338;2023-07-20T07:01:07;11.27;;;8.57;;
40951;SDS011;26682;51.660;19.338;2023-07-20T07:03:50;11.30;;;8.45;;
40951;SDS011;26682;51.660;19.338;2023-07-20T07:06:37;11.25;;;9.00;;
40951;SDS011;26682;51.660;19.338;2023-07-20T07:09:19;12.52;;;8.02;;
40951;SDS011;26682;51.660;19.338;2023-07-20T07:12:03;11.23;;;8.23;;
40951;SDS011;26682;51.660;19.338;2023-07-20T07:14:47;9.50;;;7.35;;
40951;SDS011;26682;51.660;19.338;2023-07-20T07:17:30;8.52;;;6.70;;
40951;SDS011;26682;51.660;19.338;2023-07-20T07:20:15;10.02;;;6.95;;
40951;SDS011;26682;51.660;19.338;2023-07-20T07:23:02;8.10;;;6.65;;
40951;SDS011;26682;51.660;19.338;2023-07-20T07:25:45;10.88;;;6.50;;
40951;SDS011;26682;51.660;19.338;2023-07-20T07:28:28;8.45;;;5.72;;
40951;SDS011;26682;51.660;19.338;2023-07-20T07:31:10;8.68;;;6.18;;
40951;SDS011;26682;51.660;19.338;2023-07-20T07:33:53;7.00;;;5.60;;
40951;SDS011;26682;51.660;19.338;2023-07-20T07:36:35;11.77;;;5.78;;
40951;SDS011;26682;51.660;19.338;2023-07-20T07:39:18;7.55;;;6.35;;
40951;SDS011;26682;51.660;19.338;2023-07-20T07:42:04;7.38;;;5.55;;
40951;SDS011;26682;51.660;19.338;2023-07-20T07:44:55;10.65;;;5.90;;
40951;SDS011;26682;51.660;19.338;2023-07-20T07:47:48;7.60;;;5.60;;
40951;SDS011;26682;51.660;19.338;2023-07-20T07:50:31;8.18;;;5.32;;
40951;SDS011;26682;51.660;19.338;2023-07-20T07:53:14;6.50;;;4.93;;
40951;SDS011;26682;51.660;19.338;2023-07-20T07:55:57;6.60;;;5.28;;
40951;SDS011;26682;51.660;19.338;2023-07-20T07:58:40;7.13;;;5.45;;
40951;SDS011;26682;51.660;19.338;2023-07-20T08:01:22;8.25;;;5.55;;
40951;SDS011;26682;51.660;19.338;2023-07-20T08:04:05;7.40;;;5.72;;
40951;SDS011;26682;51.660;19.338;2023-07-20T08:06:48;7.68;;;5.28;;
40951;SDS011;26682;51.660;19.338;2023-07-20T08:09:30;6.07;;;5.30;;
40951;SDS011;26682;51.660;19.338;2023-07-20T08:12:13;8.48;;;5.03;;
40951;SDS011;26682;51.660;19.338;2023-07-20T08:14:59;4.82;;;3.60;;
40951;SDS011;26682;51.660;19.338;2023-07-20T08:17:42;4.15;;;2.90;;
40951;SDS011;26682;51.660;19.338;2023-07-20T08:20:26;6.57;;;3.33;;
40951;SDS011;26682;51.660;19.338;2023-07-20T08:23:09;4.18;;;3.50;;
40951;SDS011;26682;51.660;19.338;2023-07-20T08:25:51;2.42;;;2.22;;
40951;SDS011;26682;51.660;19.338;2023-07-20T08:28:34;8.07;;;2.72;;
40951;SDS011;26682;51.660;19.338;2023-07-20T08:31:17;5.43;;;2.70;;
40951;SDS011;26682;51.660;19.338;2023-07-20T08:34:01;4.35;;;2.40;;
40951;SDS011;26682;51.660;19.338;2023-07-20T08:36:57;3.95;;;2.42;;
40951;SDS011;26682;51.660;19.338;2023-07-20T08:39:41;3.42;;;2.53;;
40951;SDS011;26682;51.660;19.338;2023-07-20T08:42:24;3.95;;;2.80;;
40951;SDS011;26682;51.660;19.338;2023-07-20T08:45:07;3.25;;;2.28;;
40951;SDS011;26682;51.660;19.338;2023-07-20T08:47:51;4.82;;;2.40;;
40951;SDS011;26682;51.660;19.338;2023-07-20T08:50:38;3.95;;;2.38;;
40951;SDS011;26682;51.660;19.338;2023-07-20T08:53:21;3.97;;;2.13;;
40951;SDS011;26682;51.660;19.338;2023-07-20T08:56:06;5.75;;;2.67;;
40951;SDS011;26682;51.660;19.338;2023-07-20T08:58:53;3.17;;;2.72;;
40951;SDS011;26682;51.660;19.338;2023-07-20T09:01:36;3.42;;;2.75;;
40951;SDS011;26682;51.660;19.338;2023-07-20T09:04:21;2.78;;;2.10;;
40951;SDS011;26682;51.660;19.338;2023-07-20T09:07:04;7.38;;;2.58;;
40951;SDS011;26682;51.660;19.338;2023-07-20T09:09:46;5.82;;;2.80;;
40951;SDS011;26682;51.660;19.338;2023-07-20T09:12:33;4.00;;;2.65;;
40951;SDS011;26682;51.660;19.338;2023-07-20T09:18:45;5.20;;;2.70;;
40951;SDS011;26682;51.660;19.338;2023-07-20T09:22:08;5.05;;;2.75;;
40951;SDS011;26682;51.660;19.338;2023-07-20T09:25:40;4.93;;;2.50;;
40951;SDS011;26682;51.660;19.338;2023-07-20T09:28:42;4.05;;;2.45;;
40951;SDS011;26682;51.660;19.338;2023-07-20T09:31:29;3.15;;;2.67;;
40951;SDS011;26682;51.660;19.338;2023-07-20T09:34:21;3.65;;;2.53;;
40951;SDS011;26682;51.660;19.338;2023-07-20T09:37:07;3.38;;;2.60;;
40951;SDS011;26682;51.660;19.338;2023-07-20T09:39:51;4.05;;;2.08;;
40951;SDS011;26682;51.660;19.338;2023-07-20T09:42:41;2.78;;;1.88;;
40951;SDS011;26682;51.660;19.338;2023-07-20T09:45:44;6.78;;;3.50;;
40951;SDS011;26682;51.660;19.338;2023-07-20T09:48:30;5.40;;;2.05;;
40951;SDS011;26682;51.660;19.338;2023-07-20T09:51:16;3.72;;;2.03;;
40951;SDS011;26682;51.660;19.338;2023-07-20T09:53:59;4.90;;;2.00;;
40951;SDS011;26682;51.660;19.338;2023-07-20T09:56:43;2.40;;;1.90;;
40951;SDS011;26682;51.660;19.338;2023-07-20T09:59:28;4.13;;;2.08;;
40951;SDS011;26682;51.660;19.338;2023-07-20T10:02:12;3.92;;;1.85;;
40951;SDS011;26682;51.660;19.338;2023-07-20T10:05:09;6.07;;;2.15;;
40951;SDS011;26682;51.660;19.338;2023-07-20T10:07:56;3.33;;;2.30;;
40951;SDS011;26682;51.660;19.338;2023-07-20T10:10:43;5.78;;;2.00;;
40951;SDS011;26682;51.660;19.338;2023-07-20T10:13:27;3.50;;;1.80;;
40951;SDS011;26682;51.660;19.338;2023-07-20T10:16:11;3.15;;;2.20;;
40951;SDS011;26682;51.660;19.338;2023-07-20T10:19:11;6.53;;;2.30;;
40951;SDS011;26682;51.660;19.338;2023-07-20T10:22:03;3.92;;;2.30;;
40951;SDS011;26682;51.660;19.338;2023-07-20T10:24:54;4.25;;;2.70;;
40951;SDS011;26682;51.660;19.338;2023-07-20T10:27:40;3.10;;;1.92;;
40951;SDS011;26682;51.660;19.338;2023-07-20T10:30:23;5.93;;;2.20;;
40951;SDS011;26682;51.660;19.338;2023-07-20T10:33:07;5.28;;;2.22;;
40951;SDS011;26682;51.660;19.338;2023-07-20T10:35:52;3.50;;;2.00;;
40951;SDS011;26682;51.660;19.338;2023-07-20T10:41:28;7.13;;;2.50;;
40951;SDS011;26682;51.660;19.338;2023-07-20T10:44:13;3.42;;;1.80;;
40951;SDS011;26682;51.660;19.338;2023-07-20T10:47:02;2.47;;;1.58;;
40951;SDS011;26682;51.660;19.338;2023-07-20T10:49:59;4.47;;;2.30;;
40951;SDS011;26682;51.660;19.338;2023-07-20T10:52:43;6.63;;;2.95;;
40951;SDS011;26682;51.660;19.338;2023-07-20T10:55:47;6.75;;;2.47;;
40951;SDS011;26682;51.660;19.338;2023-07-20T10:58:35;4.88;;;2.53;;
40951;SDS011;26682;51.660;19.338;2023-07-20T11:01:18;3.53;;;2.80;;
40951;SDS011;26682;51.660;19.338;2023-07-20T11:04:01;4.10;;;2.40;;
40951;SDS011;26682;51.660;19.338;2023-07-20T11:06:56;4.45;;;2.78;;
40951;SDS011;26682;51.660;19.338;2023-07-20T11:09:38;3.33;;;2.47;;
40951;SDS011;26682;51.660;19.338;2023-07-20T11:12:21;2.70;;;2.15;;
40951;SDS011;26682;51.660;19.338;2023-07-20T11:15:04;4.72;;;2.47;;
40951;SDS011;26682;51.660;19.338;2023-07-20T11:17:47;3.92;;;2.53;;
40951;SDS011;26682;51.660;19.338;2023-07-20T11:20:29;3.13;;;2.40;;
40951;SDS011;26682;51.660;19.338;2023-07-20T11:23:12;4.28;;;2.40;;
40951;SDS011;26682;51.660;19.338;2023-07-20T11:25:55;6.13;;;3.05;;
40951;SDS011;26682;51.660;19.338;2023-07-20T11:28:37;19.27;;;5.68;;
40951;SDS011;26682;51.660;19.338;2023-07-20T11:31:20;13.02;;;5.78;;
40951;SDS011;26682;51.660;19.338;2023-07-20T11:34:03;11.75;;;5.13;;
40951;SDS011;26682;51.660;19.338;2023-07-20T11:36:50;9.30;;;4.50;;
40951;SDS011;26682;51.660;19.338;2023-07-20T11:39:36;4.95;;;3.63;;
40951;SDS011;26682;51.660;19.338;2023-07-20T11:42:21;7.82;;;4.50;;
40951;SDS011;26682;51.660;19.338;2023-07-20T11:45:07;5.40;;;3.80;;
40951;SDS011;26682;51.660;19.338;2023-07-20T11:47:50;5.32;;;3.00;;
40951;SDS011;26682;51.660;19.338;2023-07-20T11:50:38;6.05;;;2.28;;
40951;SDS011;26682;51.660;19.338;2023-07-20T11:53:22;4.72;;;2.67;;
40951;SDS011;26682;51.660;19.338;2023-07-20T11:56:07;3.17;;;2.58;;
40951;SDS011;26682;51.660;19.338;2023-07-20T11:58:50;6.22;;;5.63;;
40951;SDS011;26682;51.660;19.338;2023-07-20T12:01:36;2.97;;;2.25;;
40951;SDS011;26682;51.660;19.338;2023-07-20T12:04:19;4.07;;;1.70;;
40951;SDS011;26682;51.660;19.338;2023-07-20T12:10:07;2.88;;;1.38;;
40951;SDS011;26682;51.660;19.338;2023-07-20T12:12:52;2.75;;;1.20;;
40951;SDS011;26682;51.660;19.338;2023-07-20T12:15:39;1.33;;;1.10;;
40951;SDS011;26682;51.660;19.338;2023-07-20T12:18:22;1.02;;;0.93;;
40951;SDS011;26682;51.660;19.338;2023-07-20T12:21:06;3.00;;;1.40;;
40951;SDS011;26682;51.660;19.338;2023-07-20T12:23:52;1.35;;;1.20;;
40951;SDS011;26682;51.660;19.338;2023-07-20T12:26:37;2.05;;;1.10;;
40951;SDS011;26682;51.660;19.338;2023-07-20T12:29:20;1.42;;;1.20;;
40951;SDS011;26682;51.660;19.338;2023-07-20T12:32:03;2.30;;;1.40;;
40951;SDS011;26682;51.660;19.338;2023-07-20T12:34:46;2.28;;;1.27;;
40951;SDS011;26682;51.660;19.338;2023-07-20T12:37:29;1.45;;;1.35;;
40951;SDS011;26682;51.660;19.338;2023-07-20T12:40:12;2.63;;;1.20;;
40951;SDS011;26682;51.660;19.338;2023-07-20T12:42:55;1.67;;;1.08;;
40951;SDS011;26682;51.660;19.338;2023-07-20T12:45:37;2.17;;;1.25;;
40951;SDS011;26682;51.660;19.338;2023-07-20T12:48:20;1.40;;;1.30;;
40951;SDS011;26682;51.660;19.338;2023-07-20T12:51:03;2.25;;;1.23;;
40951;SDS011;26682;51.660;19.338;2023-07-20T12:53:50;4.35;;;1.33;;
40951;SDS011;26682;51.660;19.338;2023-07-20T12:56:34;2.88;;;1.40;;
40951;SDS011;26682;51.660;19.338;2023-07-20T12:59:20;2.55;;;1.30;;
40951;SDS011;26682;51.660;19.338;2023-07-20T13:02:03;2.45;;;1.50;;
40951;SDS011;26682;51.660;19.338;2023-07-20T13:04:46;3.80;;;1.25;;
40951;SDS011;26682;51.660;19.338;2023-07-20T13:07:29;3.83;;;0.90;;
40951;SDS011;26682;51.660;19.338;2023-07-20T13:10:20;1.60;;;0.68;;
40951;SDS011;26682;51.660;19.338;2023-07-20T13:13:03;4.05;;;0.70;;
40951;SDS011;26682;51.660;19.338;2023-07-20T13:15:48;1.45;;;0.90;;
40951;SDS011;26682;51.660;19.338;2023-07-20T13:18:32;2.38;;;0.85;;
40951;SDS011;26682;51.660;19.338;2023-07-20T13:21:14;3.75;;;0.90;;
40951;SDS011;26682;51.660;19.338;2023-07-20T13:23:57;3.95;;;0.80;;
40951;SDS011;26682;51.660;19.338;2023-07-20T13:26:40;3.63;;;1.20;;
40951;SDS011;26682;51.660;19.338;2023-07-20T13:29:23;3.38;;;1.38;;
40951;SDS011;26682;51.660;19.338;2023-07-20T13:32:07;1.70;;;1.20;;
40951;SDS011;26682;51.660;19.338;2023-07-20T13:34:50;2.50;;;0.90;;
40951;SDS011;26682;51.660;19.338;2023-07-20T13:37:33;0.85;;;0.80;;
40951;SDS011;26682;51.660;19.338;2023-07-20T13:40:15;0.82;;;0.60;;
40951;SDS011;26682;51.660;19.338;2023-07-20T13:43:00;1.13;;;0.50;;
40951;SDS011;26682;51.660;19.338;2023-07-20T13:45:43;0.65;;;0.60;;
40951;SDS011;26682;51.660;19.338;2023-07-20T13:48:26;0.60;;;0.60;;
40951;SDS011;26682;51.660;19.338;2023-07-20T13:51:10;0.60;;;0.45;;
40951;SDS011;26682;51.660;19.338;2023-07-20T13:53:54;2.05;;;0.57;;
40951;SDS011;26682;51.660;19.338;2023-07-20T13:56:37;2.30;;;0.77;;
40951;SDS011;26682;51.660;19.338;2023-07-20T13:59:23;0.82;;;0.63;;
40951;SDS011;26682;51.660;19.338;2023-07-20T14:02:07;1.58;;;0.60;;
40951;SDS011;26682;51.660;19.338;2023-07-20T14:04:53;2.83;;;0.60;;
40951;SDS011;26682;51.660;19.338;2023-07-20T14:07:41;0.93;;;0.80;;
40951;SDS011;26682;51.660;19.338;2023-07-20T14:10:25;1.55;;;0.90;;
40951;SDS011;26682;51.660;19.338;2023-07-20T14:13:08;4.50;;;1.23;;
40951;SDS011;26682;51.660;19.338;2023-07-20T14:15:51;2.35;;;1.10;;
40951;SDS011;26682;51.660;19.338;2023-07-20T14:18:34;0.80;;;0.73;;
40951;SDS011;26682;51.660;19.338;2023-07-20T14:21:17;5.60;;;1.00;;
40951;SDS011;26682;51.660;19.338;2023-07-20T14:24:00;2.05;;;1.02;;
40951;SDS011;26682;51.660;19.338;2023-07-20T14:26:43;1.48;;;0.80;;
40951;SDS011;26682;51.660;19.338;2023-07-20T14:29:26;2.05;;;1.00;;
40951;SDS011;26682;51.660;19.338;2023-07-20T14:32:09;1.88;;;0.90;;
40951;SDS011;26682;51.660;19.338;2023-07-20T14:34:52;2.03;;;1.00;;
40951;SDS011;26682;51.660;19.338;2023-07-20T14:37:35;2.95;;;0.95;;
40951;SDS011;26682;51.660;19.338;2023-07-20T14:40:18;1.45;;;1.00;;
40951;SDS011;26682;51.660;19.338;2023-07-20T14:43:01;0.93;;;0.75;;
40951;SDS011;26682;51.660;19.338;2023-07-20T14:45:43;3.30;;;0.82;;
40951;SDS011;26682;51.660;19.338;2023-07-20T14:48:27;3.08;;;0.80;;
40951;SDS011;26682;51.660;19.338;2023-07-20T14:51:10;0.88;;;0.70;;
40951;SDS011;26682;51.660;19.338;2023-07-20T14:53:52;5.38;;;0.98;;
40951;SDS011;26682;51.660;19.338;2023-07-20T14:56:37;2.47;;;0.70;;
40951;SDS011;26682;51.660;19.338;2023-07-20T14:59:20;1.40;;;0.80;;
40951;SDS011;26682;51.660;19.338;2023-07-20T15:02:09;1.02;;;0.90;;
40951;SDS011;26682;51.660;19.338;2023-07-20T15:04:52;1.80;;;0.80;;
40951;SDS011;26682;51.660;19.338;2023-07-20T15:07:35;2.05;;;1.00;;
40951;SDS011;26682;51.660;19.338;2023-07-20T15:10:18;2.55;;;0.93;;
40951;SDS011;26682;51.660;19.338;2023-07-20T15:13:04;2.38;;;1.08;;
40951;SDS011;26682;51.660;19.338;2023-07-20T15:15:48;1.65;;;0.90;;
40951;SDS011;26682;51.660;19.338;2023-07-20T15:18:31;2.42;;;0.95;;
40951;SDS011;26682;51.660;19.338;2023-07-20T15:21:29;5.32;;;0.88;;
40951;SDS011;26682;51.660;19.338;2023-07-20T15:24:16;2.85;;;0.65;;
40951;SDS011;26682;51.660;19.338;2023-07-20T15:26:58;1.25;;;0.80;;
40951;SDS011;26682;51.660;19.338;2023-07-20T15:29:42;2.42;;;0.80;;
40951;SDS011;26682;51.660;19.338;2023-07-20T15:32:26;0.98;;;0.68;;
40951;SDS011;26682;51.660;19.338;2023-07-20T15:35:12;2.35;;;1.08;;
40951;SDS011;26682;51.660;19.338;2023-07-20T15:37:55;3.88;;;1.00;;
40951;SDS011;26682;51.660;19.338;2023-07-20T15:40:38;1.23;;;0.68;;
40951;SDS011;26682;51.660;19.338;2023-07-20T15:43:26;2.10;;;0.70;;
40951;SDS011;26682;51.660;19.338;2023-07-20T15:49:01;1.85;;;0.80;;
40951;SDS011;26682;51.660;19.338;2023-07-20T15:51:45;1.58;;;0.70;;
40951;SDS011;26682;51.660;19.338;2023-07-20T15:54:28;1.15;;;0.63;;
40951;SDS011;26682;51.660;19.338;2023-07-20T15:57:11;2.28;;;0.70;;
40951;SDS011;26682;51.660;19.338;2023-07-20T15:59:54;2.35;;;0.60;;
40951;SDS011;26682;51.660;19.338;2023-07-20T16:02:36;0.90;;;0.70;;
40951;SDS011;26682;51.660;19.338;2023-07-20T16:05:21;4.38;;;0.63;;
40951;SDS011;26682;51.660;19.338;2023-07-20T16:08:04;2.05;;;0.80;;
40951;SDS011;26682;51.660;19.338;2023-07-20T16:10:48;2.05;;;0.70;;
40951;SDS011;26682;51.660;19.338;2023-07-20T16:13:43;1.48;;;0.70;;
40951;SDS011;26682;51.660;19.338;2023-07-20T16:16:28;2.38;;;0.82;;
40951;SDS011;26682;51.660;19.338;2023-07-20T16:19:12;1.95;;;0.90;;
40951;SDS011;26682;51.660;19.338;2023-07-20T16:21:54;1.65;;;0.80;;
40951;SDS011;26682;51.660;19.338;2023-07-20T16:24:38;8.07;;;0.70;;
40951;SDS011;26682;51.660;19.338;2023-07-20T16:27:21;1.55;;;0.85;;
40951;SDS011;26682;51.660;19.338;2023-07-20T16:30:05;1.83;;;1.00;;
40951;SDS011;26682;51.660;19.338;2023-07-20T16:32:48;1.00;;;0.70;;
40951;SDS011;26682;51.660;19.338;2023-07-20T16:35:39;4.47;;;0.88;;
40951;SDS011;26682;51.660;19.338;2023-07-20T16:38:25;2.15;;;0.90;;
40951;SDS011;26682;51.660;19.338;2023-07-20T16:41:08;1.70;;;0.95;;